Amber, OK

5:24 PM CDT on March 28, 2017 (GMT -0500)
Amber | | Change Station
Active Advisory: Tornado Watch

Elev 1263 ft 35.16 °N, 97.88 °W | Updated 4 minutes ago

Overcast
Overcast
67.3 °F
Feels Like 67.3 °F
N
8.5
Wind Variable Wind from ESE
Gusts 13.0 mph

Today
High -- | Low -- °F
--% Chance of Precip.
Yesterday
High -- | Low -- °F
Precip. -- in
Pressure 29.74 in
Visibility 10.0 miles
Clouds Overcast 2900 ft
Dew Point 60 °F
Humidity 77%
Rainfall 0.00 in
Snow Depth Not available.
7:23 AM 7:49 PM
New Moon, 1% visible
METAR KOKC 282152Z 11011KT 10SM OVC029 19/13 A2975 RMK AO2 SLP070 T01940133
Pressure 29.74 in
Visibility 10.0 miles
Clouds Overcast 2900 ft
Dew Point 60 °F
Humidity 77%
Rainfall 0.00 in
Snow Depth Not available.
7:23 AM 7:49 PM
New Moon, 1% visible
METAR KOKC 282152Z 11011KT 10SM OVC029 19/13 A2975 RMK AO2 SLP070 T01940133

Get Your Daily Forecast Email!

Thanks for signing up!

Be on the lookout for a verification email in your inbox.

You'll start receiving severe weather alerts in your inbox..

×

10-Day Weather Forecast

Almanac

Astronomy

Mar. 28, 2017 Rise Set
Actual Time
Civil Twilight
Nautical Twilight
Astronomical Twilight
Moon
Length of Visible Light
Length of Day
Tomorrow will be .
, % of the Moon is Illuminated

Today's Extremes

State Highs State Lows

Community

WunderPhotos

Upload Photos

1,962,540 photos uploaded!

WunderBlog® & News

Nearby

Air Quality

  Air Quality AQ Index Pollutant
Not available.

Snow Depth

Station Depth Elevation

Earthquake Activity

City Distance Mag. Time & Date
Minimum magnitude displayed is 2.5.

Earthquake Activity

City Distance Mag. Time & Date
Minimum magnitude displayed is 2.5.

Coastal Water Temperatures

Place Temperature

Stations

Nearby Weather Stations

Station Location Temp. Windchill Dew Point Humidity Wind Precip. Elev Updated Type
                   

Watches & Warnings

Tornado Watch
Issued: 5:03 PM CDT Mar. 28, 2017 – National Weather Service

Tornado Watch 95 remains in effect until 1100 PM CDT for the
following locations


OK
. Oklahoma counties included are

Beckham Caddo Carter
Comanche Cotton Garvin
Grady Greer Harmon
Jackson Jefferson Kiowa
Love McClain Murray
Stephens Tillman Washita